Zionville, North Carolina
Current Conditions -  °F | °C
As of 7:15 AM on Thursday 29 Jan 2015 (Local Time) from KTNB Reporting Station
Clear Clear  
Wind Chill: 26°   Ceiling: Unl
Heat Index: 32°   Visibility: 10mi
Dew Point: 15°   Wind: 6mph
Humidity: 50%   Direction: 230°SW
Pressure: 30.18"   Gusts: NA
Location:  36.33°N, 81.74°W
Report Text: KTNB 291215Z AUTO 23005KT 10SM CLR 00/M09 A3018 RMK AO2 T10011094
Loading
Personal Weather Stations






























Interactive Weather Map New forecast layout! Learn more

10-Day Weather Forecast

Advertisements
Track Severe Weather on mobile